NKS1365 KMSY-KMCO
Flight info
| Callsign | NKS1365 |
|---|---|
| Flight time | N/A |
| Altitude | 35000 |
| Route | REDFN Y280 CHRGE PRICY5 |
| Aircraft | A321/M-SDE3FGHIRWY/LB1 |
Departure
| Time | 2026-05-06 17:34 |
|---|---|
| Airport | Louis Armstrong New Orleans International Airport (KMSY) |
Arrival
| Time | N/A |
|---|---|
| Airport | Orlando International Airport (KMCO) |
| Time | Latitude | Longitude | Altitude | Speed | Heading |
|---|---|---|---|---|---|
| 2026-05-06 17:24 | 29.98632 | -90.25505 | 15 ft | 0 kts | 37° |
| 2026-05-06 17:28 | 29.98633 | -90.25504 | 15 ft | 2 kts | 36° |
| 2026-05-06 17:28 | 29.98663 | -90.25489 | 16 ft | 6 kts | 16° |
| 2026-05-06 17:28 | 29.98703 | -90.25451 | 16 ft | 12 kts | 43° |
| 2026-05-06 17:28 | 29.98775 | -90.25383 | 14 ft | 14 kts | 35° |
| 2026-05-06 17:29 | 29.98848 | -90.25381 | 14 ft | 12 kts | 320° |
| 2026-05-06 17:29 | 29.98884 | -90.25472 | 14 ft | 13 kts | 287° |
| 2026-05-06 17:29 | 29.98915 | -90.25595 | 16 ft | 21 kts | 284° |
| 2026-05-06 17:29 | 29.98956 | -90.25769 | 17 ft | 23 kts | 287° |
| 2026-05-06 17:30 | 29.99003 | -90.25956 | 15 ft | 25 kts | 284° |
| 2026-05-06 17:30 | 29.99049 | -90.26150 | 14 ft | 25 kts | 286° |
| 2026-05-06 17:30 | 29.99098 | -90.26350 | 12 ft | 26 kts | 285° |
| 2026-05-06 17:30 | 29.99147 | -90.26552 | 13 ft | 26 kts | 285° |
| 2026-05-06 17:31 | 29.99196 | -90.26759 | 12 ft | 27 kts | 285° |
| 2026-05-06 17:31 | 29.99243 | -90.26961 | 13 ft | 26 kts | 285° |
| 2026-05-06 17:31 | 29.99295 | -90.27167 | 12 ft | 27 kts | 285° |
| 2026-05-06 17:31 | 29.99347 | -90.27384 | 7 ft | 29 kts | 286° |
| 2026-05-06 17:32 | 29.99401 | -90.27610 | 7 ft | 29 kts | 285° |
| 2026-05-06 17:32 | 29.99459 | -90.27829 | 6 ft | 29 kts | 287° |
| 2026-05-06 17:32 | 29.99506 | -90.28048 | 11 ft | 26 kts | 284° |
| 2026-05-06 17:32 | 29.99556 | -90.28171 | 10 ft | 14 kts | 327° |
| 2026-05-06 17:33 | 29.99642 | -90.28150 | 11 ft | 13 kts | 57° |
| 2026-05-06 17:33 | 29.99633 | -90.28035 | 9 ft | 21 kts | 104° |
| 2026-05-06 17:33 | 29.99529 | -90.27612 | 6 ft | 90 kts | 105° |
| 2026-05-06 17:33 | 29.99304 | -90.26689 | 18 ft | 146 kts | 106° |
| 2026-05-06 17:34 | 29.98999 | -90.25418 | 269 ft | 168 kts | 103° |
| 2026-05-06 17:34 | 29.98737 | -90.24131 | 959 ft | 168 kts | 111° |
| 2026-05-06 17:34 | 29.98569 | -90.22762 | 1372 ft | 181 kts | 104° |
| 2026-05-06 17:34 | 29.98385 | -90.21229 | 1605 ft | 203 kts | 103° |
| 2026-05-06 17:35 | 29.98172 | -90.19523 | 1752 ft | 228 kts | 104° |
| 2026-05-06 17:35 | 29.97849 | -90.17645 | 1971 ft | 247 kts | 117° |
| 2026-05-06 17:35 | 29.96902 | -90.16004 | 2380 ft | 252 kts | 135° |
| 2026-05-06 17:36 | 29.94592 | -90.12860 | 3682 ft | 261 kts | 134° |
| 2026-05-06 17:36 | 29.93415 | -90.11258 | 4351 ft | 267 kts | 134° |
| 2026-05-06 17:36 | 29.92192 | -90.09596 | 4988 ft | 274 kts | 134° |
| 2026-05-06 17:36 | 29.90947 | -90.07902 | 5656 ft | 278 kts | 134° |
| 2026-05-06 17:37 | 29.89705 | -90.06207 | 6327 ft | 282 kts | 134° |
| 2026-05-06 17:37 | 29.88434 | -90.04471 | 6958 ft | 285 kts | 135° |
| 2026-05-06 17:37 | 29.87142 | -90.02711 | 7550 ft | 289 kts | 135° |
| 2026-05-06 17:37 | 29.85831 | -90.00926 | 8144 ft | 293 kts | 135° |
| 2026-05-06 17:38 | 29.84504 | -89.99118 | 8701 ft | 296 kts | 135° |
| 2026-05-06 17:38 | 29.83176 | -89.97309 | 9268 ft | 300 kts | 135° |
| 2026-05-06 17:38 | 29.81821 | -89.95464 | 9910 ft | 303 kts | 134° |
| 2026-05-06 17:38 | 29.80438 | -89.93580 | 10253 ft | 317 kts | 134° |
| 2026-05-06 17:39 | 29.78960 | -89.91576 | 10372 ft | 337 kts | 134° |
| 2026-05-06 17:39 | 29.77396 | -89.89462 | 10505 ft | 355 kts | 134° |
| 2026-05-06 17:39 | 29.75777 | -89.87266 | 10862 ft | 363 kts | 134° |
| 2026-05-06 17:39 | 29.74154 | -89.85059 | 11339 ft | 367 kts | 133° |
| 2026-05-06 17:40 | 29.72495 | -89.82799 | 11880 ft | 371 kts | 133° |
| 2026-05-06 17:40 | 29.70817 | -89.80513 | 12393 ft | 375 kts | 133° |
| 2026-05-06 17:40 | 29.69135 | -89.78230 | 12878 ft | 378 kts | 133° |
| 2026-05-06 17:40 | 29.67414 | -89.75903 | 13352 ft | 382 kts | 133° |
| 2026-05-06 17:41 | 29.65678 | -89.73559 | 13842 ft | 386 kts | 133° |
| 2026-05-06 17:41 | 29.63948 | -89.71221 | 14273 ft | 390 kts | 133° |
| 2026-05-06 17:41 | 29.62177 | -89.68825 | 14709 ft | 394 kts | 133° |
| 2026-05-06 17:41 | 29.60389 | -89.66406 | 15149 ft | 398 kts | 133° |
| 2026-05-06 17:42 | 29.58589 | -89.63974 | 15617 ft | 401 kts | 134° |
| 2026-05-06 17:42 | 29.56771 | -89.61521 | 16065 ft | 405 kts | 134° |
| 2026-05-06 17:42 | 29.54959 | -89.59079 | 16511 ft | 409 kts | 134° |
| 2026-05-06 17:42 | 29.53104 | -89.56580 | 16941 ft | 412 kts | 133° |
| 2026-05-06 17:43 | 29.51233 | -89.54061 | 17400 ft | 416 kts | 134° |
| 2026-05-06 17:43 | 29.49342 | -89.51521 | 17859 ft | 419 kts | 134° |
| 2026-05-06 17:43 | 29.47431 | -89.48954 | 18308 ft | 423 kts | 134° |
| 2026-05-06 17:43 | 29.45527 | -89.46393 | 18687 ft | 427 kts | 134° |
| 2026-05-06 17:44 | 29.43587 | -89.43780 | 19096 ft | 430 kts | 134° |
| 2026-05-06 17:44 | 29.41659 | -89.41188 | 19494 ft | 433 kts | 134° |
| 2026-05-06 17:44 | 29.39691 | -89.38546 | 19899 ft | 436 kts | 134° |
| 2026-05-06 17:44 | 29.37706 | -89.35887 | 20302 ft | 440 kts | 134° |
| 2026-05-06 17:45 | 29.35700 | -89.33204 | 20705 ft | 443 kts | 134° |
| 2026-05-06 17:45 | 29.33690 | -89.30512 | 21104 ft | 446 kts | 134° |
| 2026-05-06 17:45 | 29.31685 | -89.27825 | 21493 ft | 449 kts | 135° |
| 2026-05-06 17:45 | 29.29646 | -89.25091 | 21862 ft | 452 kts | 135° |
| 2026-05-06 17:46 | 29.27586 | -89.22333 | 22227 ft | 456 kts | 135° |
| 2026-05-06 17:46 | 29.25509 | -89.19558 | 22572 ft | 459 kts | 135° |
| 2026-05-06 17:46 | 29.23440 | -89.16797 | 22908 ft | 462 kts | 135° |
| 2026-05-06 17:46 | 29.21330 | -89.13983 | 23257 ft | 465 kts | 135° |
| 2026-05-06 17:47 | 29.19240 | -89.11201 | 23590 ft | 467 kts | 135° |
| 2026-05-06 17:47 | 29.17104 | -89.08356 | 23892 ft | 470 kts | 135° |
| 2026-05-06 17:47 | 29.14962 | -89.05504 | 24180 ft | 472 kts | 135° |
| 2026-05-06 17:47 | 29.12829 | -89.02670 | 24471 ft | 474 kts | 135° |
| 2026-05-06 17:48 | 29.10661 | -88.99797 | 24761 ft | 476 kts | 135° |
| 2026-05-06 17:48 | 29.08481 | -88.96909 | 25058 ft | 479 kts | 135° |
| 2026-05-06 17:48 | 29.06327 | -88.94051 | 25343 ft | 481 kts | 135° |
| 2026-05-06 17:48 | 29.04132 | -88.91139 | 25634 ft | 483 kts | 135° |
| 2026-05-06 17:49 | 29.01931 | -88.88221 | 25921 ft | 485 kts | 135° |
| 2026-05-06 17:49 | 28.99712 | -88.85279 | 26208 ft | 487 kts | 135° |
| 2026-05-06 17:49 | 28.97513 | -88.82365 | 26473 ft | 490 kts | 135° |
| 2026-05-06 17:49 | 28.95272 | -88.79400 | 26743 ft | 492 kts | 135° |
| 2026-05-06 17:50 | 28.93027 | -88.76435 | 27042 ft | 493 kts | 135° |
| 2026-05-06 17:50 | 28.90790 | -88.73469 | 27331 ft | 495 kts | 134° |
| 2026-05-06 17:50 | 28.88826 | -88.70261 | 27600 ft | 503 kts | 123° |
| 2026-05-06 17:50 | 28.87327 | -88.66615 | 27855 ft | 510 kts | 112° |
| 2026-05-06 17:51 | 28.86240 | -88.62741 | 28103 ft | 513 kts | 109° |
| 2026-05-06 17:51 | 28.85170 | -88.58837 | 28360 ft | 515 kts | 110° |
| 2026-05-06 17:51 | 28.84103 | -88.54963 | 28614 ft | 517 kts | 110° |
| 2026-05-06 17:51 | 28.83014 | -88.51032 | 28857 ft | 519 kts | 110° |
| 2026-05-06 17:52 | 28.81915 | -88.47083 | 29101 ft | 521 kts | 110° |
| 2026-05-06 17:52 | 28.80821 | -88.43175 | 29356 ft | 523 kts | 110° |
| 2026-05-06 17:52 | 28.79710 | -88.39204 | 29611 ft | 525 kts | 110° |
| 2026-05-06 17:52 | 28.78592 | -88.35210 | 29868 ft | 527 kts | 110° |
| 2026-05-06 17:53 | 28.77485 | -88.31253 | 30115 ft | 529 kts | 110° |
| 2026-05-06 17:53 | 28.76366 | -88.27249 | 30389 ft | 529 kts | 110° |
| 2026-05-06 17:53 | 28.75246 | -88.23239 | 30689 ft | 528 kts | 110° |
| 2026-05-06 17:53 | 28.74147 | -88.19298 | 30981 ft | 528 kts | 110° |
| 2026-05-06 17:54 | 28.73030 | -88.15303 | 31267 ft | 528 kts | 110° |
| 2026-05-06 17:54 | 28.71910 | -88.11308 | 31545 ft | 527 kts | 110° |
| 2026-05-06 17:54 | 28.70793 | -88.07324 | 31837 ft | 527 kts | 110° |
| 2026-05-06 17:54 | 28.69673 | -88.03339 | 32127 ft | 527 kts | 110° |
| 2026-05-06 17:55 | 28.68562 | -87.99403 | 32417 ft | 526 kts | 110° |
| 2026-05-06 17:55 | 28.67433 | -87.95418 | 32706 ft | 526 kts | 110° |
| 2026-05-06 17:55 | 28.66305 | -87.91435 | 32982 ft | 526 kts | 110° |
| 2026-05-06 17:55 | 28.65190 | -87.87504 | 33251 ft | 526 kts | 110° |
| 2026-05-06 17:56 | 28.64068 | -87.83541 | 33548 ft | 524 kts | 110° |
| 2026-05-06 17:56 | 28.62948 | -87.79595 | 33923 ft | 521 kts | 110° |
| 2026-05-06 17:56 | 28.62209 | -87.76994 | 34126 ft | 520 kts | 110° |
| 2026-05-06 17:56 | 28.60728 | -87.71787 | 34467 ft | 519 kts | 110° |
| 2026-05-06 17:57 | 28.59990 | -87.69193 | 34633 ft | 519 kts | 110° |
| 2026-05-06 17:57 | 28.58872 | -87.65273 | 34869 ft | 518 kts | 110° |
| 2026-05-06 17:57 | 28.57759 | -87.61361 | 35028 ft | 519 kts | 110° |
| 2026-05-06 17:57 | 28.56283 | -87.56188 | 35068 ft | 516 kts | 110° |
| 2026-05-06 17:58 | 28.54429 | -87.49735 | 35067 ft | 515 kts | 110° |
| 2026-05-06 17:58 | 28.52195 | -87.41975 | 35066 ft | 515 kts | 110° |
| 2026-05-06 17:59 | 28.49976 | -87.34266 | 35066 ft | 515 kts | 110° |
| 2026-05-06 17:59 | 28.47741 | -87.26503 | 35070 ft | 515 kts | 110° |
| 2026-05-06 18:00 | 28.45521 | -87.18804 | 35080 ft | 515 kts | 110° |
| 2026-05-06 18:00 | 28.43282 | -87.11061 | 35089 ft | 516 kts | 110° |
| 2026-05-06 18:01 | 28.34690 | -86.81546 | 35101 ft | 515 kts | 110° |
| 2026-05-06 18:01 | 28.25729 | -86.50918 | 35093 ft | 513 kts | 110° |
| 2026-05-06 18:02 | 28.16698 | -86.20196 | 35104 ft | 513 kts | 110° |
| 2026-05-06 18:02 | 28.07598 | -85.89500 | 35105 ft | 513 kts | 110° |
| 2026-05-06 18:03 | 27.98459 | -85.59032 | 35114 ft | 512 kts | 110° |
| 2026-05-06 18:03 | 27.91358 | -85.35560 | 35098 ft | 511 kts | 110° |
| 2026-05-06 18:04 | 27.89063 | -85.27982 | 35110 ft | 511 kts | 110° |
| 2026-05-06 18:04 | 27.87452 | -85.20140 | 35113 ft | 512 kts | 101° |
| 2026-05-06 18:05 | 27.86146 | -85.12258 | 35117 ft | 513 kts | 101° |
| 2026-05-06 18:05 | 27.84809 | -85.04317 | 35118 ft | 513 kts | 101° |
| 2026-05-06 18:06 | 27.83478 | -84.96431 | 35118 ft | 513 kts | 101° |
| 2026-05-06 18:06 | 27.82134 | -84.88496 | 35115 ft | 513 kts | 101° |
| 2026-05-06 18:07 | 27.81371 | -84.80535 | 35117 ft | 512 kts | 87° |
| 2026-05-06 18:07 | 27.81763 | -84.72479 | 35114 ft | 512 kts | 85° |
| 2026-05-06 18:08 | 27.82148 | -84.64478 | 35119 ft | 512 kts | 85° |
| 2026-05-06 18:08 | 27.82519 | -84.56424 | 35120 ft | 512 kts | 85° |
| 2026-05-06 18:09 | 27.82892 | -84.48418 | 35118 ft | 512 kts | 85° |
| 2026-05-06 18:09 | 27.83272 | -84.40404 | 35113 ft | 512 kts | 85° |
| 2026-05-06 18:10 | 27.83647 | -84.32396 | 35113 ft | 511 kts | 85° |
| 2026-05-06 18:10 | 27.84007 | -84.24385 | 35113 ft | 511 kts | 85° |
| 2026-05-06 18:11 | 27.84361 | -84.16341 | 35116 ft | 511 kts | 85° |
| 2026-05-06 18:11 | 27.84705 | -84.08372 | 35114 ft | 510 kts | 85° |
| 2026-05-06 18:12 | 27.85050 | -84.00338 | 35117 ft | 510 kts | 85° |
| 2026-05-06 18:12 | 27.85402 | -83.92283 | 34792 ft | 513 kts | 85° |
| 2026-05-06 18:13 | 27.85573 | -83.88246 | 34240 ft | 515 kts | 85° |
| 2026-05-06 18:13 | 27.85741 | -83.84230 | 33565 ft | 516 kts | 85° |
| 2026-05-06 18:13 | 27.85910 | -83.80190 | 33099 ft | 511 kts | 85° |
| 2026-05-06 18:13 | 27.86077 | -83.76176 | 32576 ft | 509 kts | 85° |
| 2026-05-06 18:14 | 27.86239 | -83.72229 | 32068 ft | 506 kts | 85° |
| 2026-05-06 18:14 | 27.86399 | -83.68251 | 31540 ft | 503 kts | 86° |
| 2026-05-06 18:14 | 27.86557 | -83.64307 | 31021 ft | 500 kts | 86° |
| 2026-05-06 18:14 | 27.86714 | -83.60385 | 30509 ft | 498 kts | 86° |
| 2026-05-06 18:15 | 27.86869 | -83.56478 | 29963 ft | 495 kts | 86° |
| 2026-05-06 18:15 | 27.87020 | -83.52623 | 29445 ft | 491 kts | 85° |
| 2026-05-06 18:15 | 27.87171 | -83.48781 | 28939 ft | 486 kts | 85° |
| 2026-05-06 18:15 | 27.87319 | -83.45017 | 28449 ft | 482 kts | 85° |
| 2026-05-06 18:16 | 27.87470 | -83.41168 | 27949 ft | 495 kts | 85° |
| 2026-05-06 18:16 | 27.87626 | -83.37253 | 27449 ft | 498 kts | 85° |
| 2026-05-06 18:16 | 27.87778 | -83.33348 | 26953 ft | 496 kts | 85° |
| 2026-05-06 18:16 | 27.87927 | -83.29460 | 26479 ft | 493 kts | 85° |
| 2026-05-06 18:17 | 27.88064 | -83.25643 | 26004 ft | 489 kts | 86° |
| 2026-05-06 18:17 | 27.88140 | -83.21804 | 25779 ft | 487 kts | 87° |
| 2026-05-06 18:17 | 27.88157 | -83.17963 | 25507 ft | 486 kts | 88° |
| 2026-05-06 18:17 | 27.88137 | -83.14187 | 25246 ft | 484 kts | 88° |
| 2026-05-06 18:18 | 27.88106 | -83.10393 | 24982 ft | 481 kts | 88° |
| 2026-05-06 18:18 | 27.88079 | -83.06613 | 24717 ft | 479 kts | 88° |
| 2026-05-06 18:18 | 27.88062 | -83.02850 | 24456 ft | 477 kts | 88° |
| 2026-05-06 18:18 | 27.88054 | -82.99107 | 24201 ft | 475 kts | 88° |
| 2026-05-06 18:19 | 27.88056 | -82.95386 | 23935 ft | 472 kts | 88° |
| 2026-05-06 18:19 | 27.88064 | -82.91721 | 23676 ft | 470 kts | 88° |
| 2026-05-06 18:19 | 27.88074 | -82.88028 | 23393 ft | 468 kts | 88° |
| 2026-05-06 18:19 | 27.88081 | -82.84348 | 23138 ft | 466 kts | 88° |
| 2026-05-06 18:20 | 27.88084 | -82.80718 | 22886 ft | 464 kts | 88° |
| 2026-05-06 18:20 | 27.88081 | -82.77069 | 22627 ft | 461 kts | 88° |
| 2026-05-06 18:20 | 27.88075 | -82.73456 | 22367 ft | 458 kts | 88° |
| 2026-05-06 18:20 | 27.88068 | -82.69862 | 22117 ft | 456 kts | 88° |
| 2026-05-06 18:21 | 27.88058 | -82.66274 | 21868 ft | 453 kts | 88° |
| 2026-05-06 18:21 | 27.88029 | -82.62760 | 21608 ft | 451 kts | 88° |
| 2026-05-06 18:21 | 27.87976 | -82.59203 | 21361 ft | 449 kts | 89° |
| 2026-05-06 18:21 | 27.87909 | -82.55680 | 21114 ft | 446 kts | 89° |
| 2026-05-06 18:22 | 27.87842 | -82.52177 | 20868 ft | 444 kts | 89° |
| 2026-05-06 18:22 | 27.87780 | -82.48738 | 20627 ft | 441 kts | 89° |
| 2026-05-06 18:22 | 27.87720 | -82.45273 | 20384 ft | 439 kts | 89° |
| 2026-05-06 18:22 | 27.87902 | -82.41794 | 20140 ft | 448 kts | 77° |
| 2026-05-06 18:23 | 27.88735 | -82.38446 | 19910 ft | 433 kts | 64° |
| 2026-05-06 18:23 | 27.89948 | -82.35422 | 19639 ft | 423 kts | 62° |
| 2026-05-06 18:23 | 27.91168 | -82.32409 | 19280 ft | 418 kts | 62° |
| 2026-05-06 18:23 | 27.95232 | -82.22245 | 18268 ft | 402 kts | 63° |
| 2026-05-06 18:24 | 27.99571 | -82.11359 | 17349 ft | 361 kts | 62° |
| 2026-05-06 18:24 | 28.03643 | -82.01177 | 16316 ft | 357 kts | 63° |
| 2026-05-06 18:24 | 28.07639 | -81.91231 | 15531 ft | 352 kts | 62° |
| 2026-05-06 18:24 | 28.11883 | -81.81595 | 14665 ft | 339 kts | 59° |